sensor_id;sensor_type;location;lat;lon;timestamp;P1;durP1;ratioP1;P2;durP2;ratioP2
18407;SDS011;9330;52.210;21.174;2022-08-14T00:00:24;7.57;;;6.80;;
18407;SDS011;9330;52.210;21.174;2022-08-14T00:02:51;7.40;;;6.55;;
18407;SDS011;9330;52.210;21.174;2022-08-14T00:05:19;7.57;;;6.90;;
18407;SDS011;9330;52.210;21.174;2022-08-14T00:07:47;7.82;;;7.03;;
18407;SDS011;9330;52.210;21.174;2022-08-14T00:10:19;7.28;;;6.57;;
18407;SDS011;9330;52.210;21.174;2022-08-14T00:12:50;7.72;;;6.40;;
18407;SDS011;9330;52.210;21.174;2022-08-14T00:15:20;8.60;;;7.35;;
18407;SDS011;9330;52.210;21.174;2022-08-14T00:17:49;7.15;;;6.45;;
18407;SDS011;9330;52.210;21.174;2022-08-14T00:20:17;7.25;;;6.55;;
18407;SDS011;9330;52.210;21.174;2022-08-14T00:22:45;7.45;;;6.75;;
18407;SDS011;9330;52.210;21.174;2022-08-14T00:25:12;8.00;;;7.25;;
18407;SDS011;9330;52.210;21.174;2022-08-14T00:27:40;7.68;;;7.03;;
18407;SDS011;9330;52.210;21.174;2022-08-14T00:30:08;8.15;;;7.35;;
18407;SDS011;9330;52.210;21.174;2022-08-14T00:32:38;7.65;;;7.05;;
18407;SDS011;9330;52.210;21.174;2022-08-14T00:35:06;8.15;;;7.35;;
18407;SDS011;9330;52.210;21.174;2022-08-14T00:37:36;8.60;;;7.80;;
18407;SDS011;9330;52.210;21.174;2022-08-14T00:40:04;7.68;;;6.97;;
18407;SDS011;9330;52.210;21.174;2022-08-14T00:42:34;7.78;;;7.07;;
18407;SDS011;9330;52.210;21.174;2022-08-14T00:45:01;7.78;;;7.10;;
18407;SDS011;9330;52.210;21.174;2022-08-14T00:47:28;7.55;;;6.50;;
18407;SDS011;9330;52.210;21.174;2022-08-14T00:49:56;7.72;;;7.03;;
18407;SDS011;9330;52.210;21.174;2022-08-14T00:52:24;11.00;;;7.53;;
18407;SDS011;9330;52.210;21.174;2022-08-14T00:54:51;7.47;;;6.72;;
18407;SDS011;9330;52.210;21.174;2022-08-14T00:57:19;7.78;;;6.90;;
18407;SDS011;9330;52.210;21.174;2022-08-14T00:59:46;9.88;;;7.53;;
18407;SDS011;9330;52.210;21.174;2022-08-14T01:02:14;7.82;;;7.07;;
18407;SDS011;9330;52.210;21.174;2022-08-14T01:04:43;8.68;;;7.78;;
18407;SDS011;9330;52.210;21.174;2022-08-14T01:07:12;10.68;;;7.60;;
18407;SDS011;9330;52.210;21.174;2022-08-14T01:09:46;9.23;;;7.68;;
18407;SDS011;9330;52.210;21.174;2022-08-14T01:12:14;8.02;;;7.22;;
18407;SDS011;9330;52.210;21.174;2022-08-14T01:14:42;8.05;;;7.25;;
18407;SDS011;9330;52.210;21.174;2022-08-14T01:17:10;7.60;;;6.93;;
18407;SDS011;9330;52.210;21.174;2022-08-14T01:19:37;9.15;;;7.00;;
18407;SDS011;9330;52.210;21.174;2022-08-14T01:22:23;7.50;;;6.68;;
18407;SDS011;9330;52.210;21.174;2022-08-14T01:24:50;7.65;;;6.93;;
18407;SDS011;9330;52.210;21.174;2022-08-14T01:27:18;7.03;;;6.40;;
18407;SDS011;9330;52.210;21.174;2022-08-14T01:29:49;7.57;;;6.72;;
18407;SDS011;9330;52.210;21.174;2022-08-14T01:32:17;7.72;;;6.97;;
18407;SDS011;9330;52.210;21.174;2022-08-14T01:34:46;7.50;;;6.40;;
18407;SDS011;9330;52.210;21.174;2022-08-14T01:37:14;8.35;;;7.22;;
18407;SDS011;9330;52.210;21.174;2022-08-14T01:39:43;7.00;;;6.30;;
18407;SDS011;9330;52.210;21.174;2022-08-14T01:42:10;7.90;;;6.63;;
18407;SDS011;9330;52.210;21.174;2022-08-14T01:44:37;7.45;;;6.75;;
18407;SDS011;9330;52.210;21.174;2022-08-14T01:47:06;7.43;;;6.72;;
18407;SDS011;9330;52.210;21.174;2022-08-14T01:49:37;7.07;;;6.10;;
18407;SDS011;9330;52.210;21.174;2022-08-14T01:52:05;6.28;;;5.78;;
18407;SDS011;9330;52.210;21.174;2022-08-14T01:54:33;7.45;;;6.47;;
18407;SDS011;9330;52.210;21.174;2022-08-14T01:57:02;7.47;;;6.78;;
18407;SDS011;9330;52.210;21.174;2022-08-14T01:59:35;8.98;;;6.75;;
18407;SDS011;9330;52.210;21.174;2022-08-14T02:02:05;7.05;;;6.38;;
18407;SDS011;9330;52.210;21.174;2022-08-14T02:04:36;7.78;;;6.10;;
18407;SDS011;9330;52.210;21.174;2022-08-14T02:07:04;8.02;;;6.65;;
18407;SDS011;9330;52.210;21.174;2022-08-14T02:09:32;7.22;;;5.88;;
18407;SDS011;9330;52.210;21.174;2022-08-14T02:12:04;7.10;;;6.40;;
18407;SDS011;9330;52.210;21.174;2022-08-14T02:14:33;6.78;;;6.10;;
18407;SDS011;9330;52.210;21.174;2022-08-14T02:17:00;7.00;;;6.07;;
18407;SDS011;9330;52.210;21.174;2022-08-14T02:19:29;6.85;;;6.15;;
18407;SDS011;9330;52.210;21.174;2022-08-14T02:21:59;6.93;;;6.30;;
18407;SDS011;9330;52.210;21.174;2022-08-14T02:24:27;8.25;;;6.95;;
18407;SDS011;9330;52.210;21.174;2022-08-14T02:26:55;7.07;;;6.32;;
18407;SDS011;9330;52.210;21.174;2022-08-14T02:29:26;8.15;;;6.40;;
18407;SDS011;9330;52.210;21.174;2022-08-14T02:31:55;7.22;;;6.53;;
18407;SDS011;9330;52.210;21.174;2022-08-14T02:34:26;8.10;;;6.35;;
18407;SDS011;9330;52.210;21.174;2022-08-14T02:36:57;8.70;;;5.95;;
18407;SDS011;9330;52.210;21.174;2022-08-14T02:39:27;6.50;;;5.85;;
18407;SDS011;9330;52.210;21.174;2022-08-14T02:41:55;6.15;;;5.65;;
18407;SDS011;9330;52.210;21.174;2022-08-14T02:44:22;7.10;;;6.40;;
18407;SDS011;9330;52.210;21.174;2022-08-14T02:46:52;6.97;;;6.03;;
18407;SDS011;9330;52.210;21.174;2022-08-14T02:49:22;6.72;;;6.10;;
18407;SDS011;9330;52.210;21.174;2022-08-14T02:51:50;7.05;;;6.32;;
18407;SDS011;9330;52.210;21.174;2022-08-14T02:54:19;7.10;;;6.40;;
18407;SDS011;9330;52.210;21.174;2022-08-14T02:56:47;7.47;;;6.63;;
18407;SDS011;9330;52.210;21.174;2022-08-14T02:59:14;6.18;;;5.57;;
18407;SDS011;9330;52.210;21.174;2022-08-14T03:01:43;6.63;;;6.03;;
18407;SDS011;9330;52.210;21.174;2022-08-14T03:04:12;6.10;;;5.50;;
18407;SDS011;9330;52.210;21.174;2022-08-14T03:06:40;7.03;;;6.13;;
18407;SDS011;9330;52.210;21.174;2022-08-14T03:09:08;7.60;;;6.57;;
18407;SDS011;9330;52.210;21.174;2022-08-14T03:11:36;6.78;;;6.18;;
18407;SDS011;9330;52.210;21.174;2022-08-14T03:14:06;6.95;;;6.32;;
18407;SDS011;9330;52.210;21.174;2022-08-14T03:16:33;7.03;;;6.38;;
18407;SDS011;9330;52.210;21.174;2022-08-14T03:19:01;7.13;;;6.43;;
18407;SDS011;9330;52.210;21.174;2022-08-14T03:21:33;7.65;;;6.25;;
18407;SDS011;9330;52.210;21.174;2022-08-14T03:24:01;6.93;;;6.22;;
18407;SDS011;9330;52.210;21.174;2022-08-14T03:26:36;6.38;;;5.75;;
18407;SDS011;9330;52.210;21.174;2022-08-14T03:29:03;6.30;;;5.80;;
18407;SDS011;9330;52.210;21.174;2022-08-14T03:31:31;6.57;;;6.07;;
18407;SDS011;9330;52.210;21.174;2022-08-14T03:33:58;7.40;;;6.65;;
18407;SDS011;9330;52.210;21.174;2022-08-14T03:36:25;6.72;;;6.13;;
18407;SDS011;9330;52.210;21.174;2022-08-14T03:38:57;7.15;;;6.30;;
18407;SDS011;9330;52.210;21.174;2022-08-14T03:41:25;5.95;;;5.32;;
18407;SDS011;9330;52.210;21.174;2022-08-14T03:43:54;7.32;;;6.60;;
18407;SDS011;9330;52.210;21.174;2022-08-14T03:46:23;6.00;;;5.50;;
18407;SDS011;9330;52.210;21.174;2022-08-14T03:48:52;7.00;;;6.30;;
18407;SDS011;9330;52.210;21.174;2022-08-14T03:51:20;7.22;;;6.50;;
18407;SDS011;9330;52.210;21.174;2022-08-14T03:53:53;7.00;;;6.20;;
18407;SDS011;9330;52.210;21.174;2022-08-14T03:56:22;7.15;;;6.55;;
18407;SDS011;9330;52.210;21.174;2022-08-14T03:58:52;6.75;;;6.13;;
18407;SDS011;9330;52.210;21.174;2022-08-14T04:01:21;7.20;;;6.38;;
18407;SDS011;9330;52.210;21.174;2022-08-14T04:03:51;7.32;;;6.63;;
18407;SDS011;9330;52.210;21.174;2022-08-14T04:06:22;13.32;;;6.90;;
18407;SDS011;9330;52.210;21.174;2022-08-14T04:08:49;6.82;;;6.18;;
18407;SDS011;9330;52.210;21.174;2022-08-14T04:11:17;7.40;;;6.35;;
18407;SDS011;9330;52.210;21.174;2022-08-14T04:13:46;7.38;;;6.60;;
18407;SDS011;9330;52.210;21.174;2022-08-14T04:16:14;7.97;;;6.72;;
18407;SDS011;9330;52.210;21.174;2022-08-14T04:18:45;9.65;;;7.10;;
18407;SDS011;9330;52.210;21.174;2022-08-14T04:21:15;6.55;;;5.80;;
18407;SDS011;9330;52.210;21.174;2022-08-14T04:23:43;7.35;;;6.57;;
18407;SDS011;9330;52.210;21.174;2022-08-14T04:26:12;8.57;;;7.13;;
18407;SDS011;9330;52.210;21.174;2022-08-14T04:28:42;7.20;;;6.50;;
18407;SDS011;9330;52.210;21.174;2022-08-14T04:31:11;8.30;;;7.55;;
18407;SDS011;9330;52.210;21.174;2022-08-14T04:33:38;7.82;;;7.13;;
18407;SDS011;9330;52.210;21.174;2022-08-14T04:36:06;8.10;;;7.28;;
18407;SDS011;9330;52.210;21.174;2022-08-14T04:38:34;6.80;;;6.13;;
18407;SDS011;9330;52.210;21.174;2022-08-14T04:41:18;8.38;;;6.82;;
18407;SDS011;9330;52.210;21.174;2022-08-14T04:44:02;7.95;;;7.20;;
18407;SDS011;9330;52.210;21.174;2022-08-14T04:46:32;8.48;;;7.57;;
18407;SDS011;9330;52.210;21.174;2022-08-14T04:49:01;8.18;;;7.38;;
18407;SDS011;9330;52.210;21.174;2022-08-14T04:51:27;8.15;;;7.35;;
18407;SDS011;9330;52.210;21.174;2022-08-14T04:53:55;7.95;;;7.10;;
18407;SDS011;9330;52.210;21.174;2022-08-14T04:56:24;9.07;;;8.18;;
18407;SDS011;9330;52.210;21.174;2022-08-14T04:58:53;8.40;;;7.70;;
18407;SDS011;9330;52.210;21.174;2022-08-14T05:01:24;7.88;;;7.15;;
18407;SDS011;9330;52.210;21.174;2022-08-14T05:03:54;8.15;;;7.35;;
18407;SDS011;9330;52.210;21.174;2022-08-14T05:06:24;8.18;;;7.35;;
18407;SDS011;9330;52.210;21.174;2022-08-14T05:08:51;8.18;;;7.38;;
18407;SDS011;9330;52.210;21.174;2022-08-14T05:11:19;9.38;;;8.50;;
18407;SDS011;9330;52.210;21.174;2022-08-14T05:13:46;9.10;;;7.57;;
18407;SDS011;9330;52.210;21.174;2022-08-14T05:16:13;8.48;;;7.65;;
18407;SDS011;9330;52.210;21.174;2022-08-14T05:18:40;7.93;;;7.28;;
18407;SDS011;9330;52.210;21.174;2022-08-14T05:21:12;8.90;;;8.10;;
18407;SDS011;9330;52.210;21.174;2022-08-14T05:23:39;9.15;;;8.35;;
18407;SDS011;9330;52.210;21.174;2022-08-14T05:26:06;9.20;;;7.80;;
18407;SDS011;9330;52.210;21.174;2022-08-14T05:28:41;9.43;;;8.50;;
18407;SDS011;9330;52.210;21.174;2022-08-14T05:31:10;9.35;;;8.23;;
18407;SDS011;9330;52.210;21.174;2022-08-14T05:33:42;11.88;;;9.57;;
18407;SDS011;9330;52.210;21.174;2022-08-14T05:36:10;12.15;;;8.63;;
18407;SDS011;9330;52.210;21.174;2022-08-14T05:38:40;9.90;;;9.00;;
18407;SDS011;9330;52.210;21.174;2022-08-14T05:41:09;10.23;;;9.13;;
18407;SDS011;9330;52.210;21.174;2022-08-14T05:43:40;10.98;;;9.60;;
18407;SDS011;9330;52.210;21.174;2022-08-14T05:46:08;10.25;;;9.25;;
18407;SDS011;9330;52.210;21.174;2022-08-14T05:48:37;10.68;;;9.68;;
18407;SDS011;9330;52.210;21.174;2022-08-14T05:51:07;10.43;;;9.25;;
18407;SDS011;9330;52.210;21.174;2022-08-14T05:53:35;11.07;;;10.02;;
18407;SDS011;9330;52.210;21.174;2022-08-14T05:56:02;10.93;;;9.82;;
18407;SDS011;9330;52.210;21.174;2022-08-14T05:58:30;10.57;;;9.50;;
18407;SDS011;9330;52.210;21.174;2022-08-14T06:00:57;11.55;;;10.40;;
18407;SDS011;9330;52.210;21.174;2022-08-14T06:03:24;13.20;;;11.82;;
18407;SDS011;9330;52.210;21.174;2022-08-14T06:05:51;11.75;;;10.50;;
18407;SDS011;9330;52.210;21.174;2022-08-14T06:08:20;12.30;;;11.13;;
18407;SDS011;9330;52.210;21.174;2022-08-14T06:10:51;12.18;;;10.90;;
18407;SDS011;9330;52.210;21.174;2022-08-14T06:13:19;11.57;;;10.35;;
18407;SDS011;9330;52.210;21.174;2022-08-14T06:15:47;11.68;;;10.48;;
18407;SDS011;9330;52.210;21.174;2022-08-14T06:18:16;11.82;;;10.50;;
18407;SDS011;9330;52.210;21.174;2022-08-14T06:20:43;12.85;;;11.25;;
18407;SDS011;9330;52.210;21.174;2022-08-14T06:23:10;13.88;;;12.45;;
18407;SDS011;9330;52.210;21.174;2022-08-14T06:25:38;12.73;;;11.43;;
18407;SDS011;9330;52.210;21.174;2022-08-14T06:28:06;12.25;;;11.05;;
18407;SDS011;9330;52.210;21.174;2022-08-14T06:30:33;11.63;;;10.52;;
18407;SDS011;9330;52.210;21.174;2022-08-14T06:33:01;12.70;;;11.40;;
18407;SDS011;9330;52.210;21.174;2022-08-14T06:35:29;13.02;;;11.18;;
18407;SDS011;9330;52.210;21.174;2022-08-14T06:37:57;12.05;;;10.93;;
18407;SDS011;9330;52.210;21.174;2022-08-14T06:40:26;11.85;;;10.75;;
18407;SDS011;9330;52.210;21.174;2022-08-14T06:42:54;12.38;;;11.13;;
18407;SDS011;9330;52.210;21.174;2022-08-14T06:45:23;11.80;;;10.65;;
18407;SDS011;9330;52.210;21.174;2022-08-14T06:47:51;11.52;;;10.32;;
18407;SDS011;9330;52.210;21.174;2022-08-14T06:50:19;12.10;;;10.90;;
18407;SDS011;9330;52.210;21.174;2022-08-14T06:52:47;11.88;;;10.68;;
18407;SDS011;9330;52.210;21.174;2022-08-14T06:55:15;12.07;;;10.20;;
18407;SDS011;9330;52.210;21.174;2022-08-14T06:57:44;11.63;;;10.43;;
18407;SDS011;9330;52.210;21.174;2022-08-14T07:00:13;11.80;;;10.60;;
18407;SDS011;9330;52.210;21.174;2022-08-14T07:02:43;11.25;;;10.15;;
18407;SDS011;9330;52.210;21.174;2022-08-14T07:05:28;12.00;;;10.90;;
18407;SDS011;9330;52.210;21.174;2022-08-14T07:08:12;11.88;;;10.68;;
18407;SDS011;9330;52.210;21.174;2022-08-14T07:10:42;11.20;;;10.10;;
18407;SDS011;9330;52.210;21.174;2022-08-14T07:13:09;11.40;;;10.27;;
18407;SDS011;9330;52.210;21.174;2022-08-14T07:15:38;11.75;;;9.73;;
18407;SDS011;9330;52.210;21.174;2022-08-14T07:18:07;10.98;;;9.90;;
18407;SDS011;9330;52.210;21.174;2022-08-14T07:20:35;11.30;;;10.27;;
18407;SDS011;9330;52.210;21.174;2022-08-14T07:23:04;10.18;;;9.27;;
18407;SDS011;9330;52.210;21.174;2022-08-14T07:25:33;10.82;;;9.73;;
18407;SDS011;9330;52.210;21.174;2022-08-14T07:28:07;10.50;;;9.50;;
18407;SDS011;9330;52.210;21.174;2022-08-14T07:30:47;12.43;;;9.88;;
18407;SDS011;9330;52.210;21.174;2022-08-14T07:33:18;11.23;;;10.15;;
18407;SDS011;9330;52.210;21.174;2022-08-14T07:35:46;10.85;;;9.73;;
18407;SDS011;9330;52.210;21.174;2022-08-14T07:38:16;12.05;;;10.90;;
18407;SDS011;9330;52.210;21.174;2022-08-14T07:40:44;12.82;;;10.57;;
18407;SDS011;9330;52.210;21.174;2022-08-14T07:43:11;11.82;;;10.55;;
18407;SDS011;9330;52.210;21.174;2022-08-14T07:45:38;12.40;;;10.95;;
18407;SDS011;9330;52.210;21.174;2022-08-14T07:48:08;12.07;;;10.85;;
18407;SDS011;9330;52.210;21.174;2022-08-14T07:50:37;13.38;;;12.02;;
18407;SDS011;9330;52.210;21.174;2022-08-14T07:53:05;12.70;;;11.40;;
18407;SDS011;9330;52.210;21.174;2022-08-14T07:55:32;13.75;;;11.63;;
18407;SDS011;9330;52.210;21.174;2022-08-14T07:58:02;14.23;;;11.57;;
18407;SDS011;9330;52.210;21.174;2022-08-14T08:00:29;12.50;;;11.30;;
18407;SDS011;9330;52.210;21.174;2022-08-14T08:02:56;12.60;;;11.18;;
18407;SDS011;9330;52.210;21.174;2022-08-14T08:05:24;13.02;;;11.70;;
18407;SDS011;9330;52.210;21.174;2022-08-14T08:07:55;12.75;;;11.50;;
18407;SDS011;9330;52.210;21.174;2022-08-14T08:10:24;12.98;;;11.68;;
18407;SDS011;9330;52.210;21.174;2022-08-14T08:12:59;12.85;;;11.52;;
18407;SDS011;9330;52.210;21.174;2022-08-14T08:15:28;12.20;;;11.00;;
18407;SDS011;9330;52.210;21.174;2022-08-14T08:17:57;12.70;;;11.50;;
18407;SDS011;9330;52.210;21.174;2022-08-14T08:20:28;12.60;;;11.35;;
18407;SDS011;9330;52.210;21.174;2022-08-14T08:22:57;11.55;;;10.43;;
18407;SDS011;9330;52.210;21.174;2022-08-14T08:25:26;12.48;;;11.30;;
18407;SDS011;9330;52.210;21.174;2022-08-14T08:27:56;12.27;;;10.95;;
18407;SDS011;9330;52.210;21.174;2022-08-14T08:30:26;12.00;;;10.77;;
18407;SDS011;9330;52.210;21.174;2022-08-14T08:32:56;11.20;;;10.05;;
18407;SDS011;9330;52.210;21.174;2022-08-14T08:35:25;11.77;;;10.68;;
18407;SDS011;9330;52.210;21.174;2022-08-14T08:41:09;11.90;;;10.70;;
18407;SDS011;9330;52.210;21.174;2022-08-14T08:43:37;12.05;;;10.68;;
18407;SDS011;9330;52.210;21.174;2022-08-14T08:46:06;12.32;;;11.05;;
18407;SDS011;9330;52.210;21.174;2022-08-14T08:48:42;11.15;;;10.13;;
18407;SDS011;9330;52.210;21.174;2022-08-14T08:51:19;11.75;;;10.65;;
18407;SDS011;9330;52.210;21.174;2022-08-14T08:53:54;11.57;;;10.48;;
18407;SDS011;9330;52.210;21.174;2022-08-14T08:56:33;11.25;;;10.23;;
18407;SDS011;9330;52.210;21.174;2022-08-14T08:59:01;11.85;;;10.75;;
18407;SDS011;9330;52.210;21.174;2022-08-14T09:01:28;11.68;;;10.38;;
18407;SDS011;9330;52.210;21.174;2022-08-14T09:04:00;12.60;;;10.63;;
18407;SDS011;9330;52.210;21.174;2022-08-14T09:06:29;12.07;;;10.98;;
18407;SDS011;9330;52.210;21.174;2022-08-14T09:08:56;12.02;;;10.82;;
18407;SDS011;9330;52.210;21.174;2022-08-14T09:11:24;12.07;;;10.85;;
18407;SDS011;9330;52.210;21.174;2022-08-14T09:13:52;11.90;;;10.88;;
18407;SDS011;9330;52.210;21.174;2022-08-14T09:16:20;14.02;;;10.48;;
18407;SDS011;9330;52.210;21.174;2022-08-14T09:18:49;12.30;;;11.00;;
18407;SDS011;9330;52.210;21.174;2022-08-14T09:21:16;12.10;;;10.90;;
18407;SDS011;9330;52.210;21.174;2022-08-14T09:23:45;11.90;;;10.90;;
18407;SDS011;9330;52.210;21.174;2022-08-14T09:26:12;11.95;;;10.73;;
18407;SDS011;9330;52.210;21.174;2022-08-14T09:28:39;12.63;;;11.40;;
18407;SDS011;9330;52.210;21.174;2022-08-14T09:31:07;12.27;;;11.15;;
18407;SDS011;9330;52.210;21.174;2022-08-14T09:36:45;12.07;;;10.98;;
18407;SDS011;9330;52.210;21.174;2022-08-14T09:39:32;12.73;;;11.43;;
18407;SDS011;9330;52.210;21.174;2022-08-14T09:42:17;11.93;;;10.70;;
18407;SDS011;9330;52.210;21.174;2022-08-14T09:45:03;11.57;;;10.45;;
18407;SDS011;9330;52.210;21.174;2022-08-14T09:47:42;12.52;;;11.20;;
18407;SDS011;9330;52.210;21.174;2022-08-14T09:50:17;11.77;;;10.68;;
18407;SDS011;9330;52.210;21.174;2022-08-14T09:52:48;10.80;;;9.80;;
18407;SDS011;9330;52.210;21.174;2022-08-14T09:55:16;12.38;;;11.02;;
18407;SDS011;9330;52.210;21.174;2022-08-14T09:57:45;13.48;;;10.57;;
18407;SDS011;9330;52.210;21.174;2022-08-14T10:00:12;11.40;;;10.30;;
18407;SDS011;9330;52.210;21.174;2022-08-14T10:02:53;12.48;;;11.32;;
18407;SDS011;9330;52.210;21.174;2022-08-14T10:05:27;11.82;;;10.82;;
18407;SDS011;9330;52.210;21.174;2022-08-14T10:07:56;12.32;;;11.18;;
18407;SDS011;9330;52.210;21.174;2022-08-14T10:10:27;11.82;;;10.35;;
18407;SDS011;9330;52.210;21.174;2022-08-14T10:12:55;11.75;;;10.55;;
18407;SDS011;9330;52.210;21.174;2022-08-14T10:15:24;13.93;;;11.10;;
18407;SDS011;9330;52.210;21.174;2022-08-14T10:18:04;12.02;;;10.93;;
18407;SDS011;9330;52.210;21.174;2022-08-14T10:20:34;12.15;;;11.05;;
18407;SDS011;9330;52.210;21.174;2022-08-14T10:23:09;11.70;;;10.52;;
18407;SDS011;9330;52.210;21.174;2022-08-14T10:25:38;13.02;;;11.43;;
18407;SDS011;9330;52.210;21.174;2022-08-14T10:28:08;11.73;;;10.52;;
18407;SDS011;9330;52.210;21.174;2022-08-14T10:30:39;12.88;;;11.52;;
18407;SDS011;9330;52.210;21.174;2022-08-14T10:33:08;12.10;;;10.77;;
18407;SDS011;9330;52.210;21.174;2022-08-14T10:35:39;13.07;;;11.57;;
18407;SDS011;9330;52.210;21.174;2022-08-14T10:38:07;13.57;;;12.18;;
18407;SDS011;9330;52.210;21.174;2022-08-14T10:40:35;12.20;;;11.00;;
18407;SDS011;9330;52.210;21.174;2022-08-14T10:43:14;11.30;;;10.23;;
18407;SDS011;9330;52.210;21.174;2022-08-14T10:45:51;12.57;;;11.32;;
18407;SDS011;9330;52.210;21.174;2022-08-14T10:48:21;13.23;;;11.90;;
18407;SDS011;9330;52.210;21.174;2022-08-14T10:50:49;13.63;;;11.68;;
18407;SDS011;9330;52.210;21.174;2022-08-14T10:53:27;13.20;;;11.80;;
18407;SDS011;9330;52.210;21.174;2022-08-14T10:55:57;13.70;;;12.43;;
18407;SDS011;9330;52.210;21.174;2022-08-14T10:58:28;13.05;;;11.88;;
18407;SDS011;9330;52.210;21.174;2022-08-14T11:00:58;13.32;;;12.10;;
18407;SDS011;9330;52.210;21.174;2022-08-14T11:03:40;12.75;;;11.55;;
18407;SDS011;9330;52.210;21.174;2022-08-14T11:06:13;13.02;;;11.75;;
18407;SDS011;9330;52.210;21.174;2022-08-14T11:08:44;13.13;;;11.00;;
18407;SDS011;9330;52.210;21.174;2022-08-14T11:11:12;13.70;;;12.30;;
18407;SDS011;9330;52.210;21.174;2022-08-14T11:13:40;13.30;;;11.55;;
18407;SDS011;9330;52.210;21.174;2022-08-14T11:16:10;12.43;;;11.13;;
18407;SDS011;9330;52.210;21.174;2022-08-14T11:18:40;14.63;;;13.07;;
18407;SDS011;9330;52.210;21.174;2022-08-14T11:21:13;12.82;;;11.55;;
18407;SDS011;9330;52.210;21.174;2022-08-14T11:23:43;14.45;;;12.93;;
18407;SDS011;9330;52.210;21.174;2022-08-14T11:26:12;12.38;;;11.20;;
18407;SDS011;9330;52.210;21.174;2022-08-14T11:28:43;13.60;;;12.23;;
18407;SDS011;9330;52.210;21.174;2022-08-14T11:31:12;15.15;;;12.00;;
18407;SDS011;9330;52.210;21.174;2022-08-14T11:33:40;14.10;;;12.65;;
18407;SDS011;9330;52.210;21.174;2022-08-14T11:36:08;13.30;;;12.10;;
18407;SDS011;9330;52.210;21.174;2022-08-14T11:38:39;12.05;;;10.95;;
18407;SDS011;9330;52.210;21.174;2022-08-14T11:41:13;13.00;;;11.70;;
18407;SDS011;9330;52.210;21.174;2022-08-14T11:43:41;13.55;;;12.25;;
18407;SDS011;9330;52.210;21.174;2022-08-14T11:46:10;13.05;;;11.80;;
18407;SDS011;9330;52.210;21.174;2022-08-14T11:48:50;13.40;;;12.13;;
18407;SDS011;9330;52.210;21.174;2022-08-14T11:51:36;13.10;;;11.95;;
18407;SDS011;9330;52.210;21.174;2022-08-14T11:54:06;12.27;;;11.15;;
18407;SDS011;9330;52.210;21.174;2022-08-14T11:56:33;12.00;;;11.00;;
18407;SDS011;9330;52.210;21.174;2022-08-14T11:59:00;12.30;;;10.50;;
18407;SDS011;9330;52.210;21.174;2022-08-14T12:01:28;12.45;;;11.07;;
18407;SDS011;9330;52.210;21.174;2022-08-14T12:04:08;12.55;;;11.10;;
18407;SDS011;9330;52.210;21.174;2022-08-14T12:06:44;12.52;;;11.32;;
18407;SDS011;9330;52.210;21.174;2022-08-14T12:09:26;11.95;;;10.85;;
18407;SDS011;9330;52.210;21.174;2022-08-14T12:11:53;11.68;;;10.52;;
18407;SDS011;9330;52.210;21.174;2022-08-14T12:14:21;12.10;;;11.00;;
18407;SDS011;9330;52.210;21.174;2022-08-14T12:16:56;11.93;;;10.73;;
18407;SDS011;9330;52.210;21.174;2022-08-14T12:19:26;13.32;;;10.80;;
18407;SDS011;9330;52.210;21.174;2022-08-14T12:21:53;11.60;;;10.40;;
18407;SDS011;9330;52.210;21.174;2022-08-14T12:24:26;12.10;;;11.00;;
18407;SDS011;9330;52.210;21.174;2022-08-14T12:26:54;11.32;;;10.32;;
18407;SDS011;9330;52.210;21.174;2022-08-14T12:29:21;12.13;;;10.93;;
18407;SDS011;9330;52.210;21.174;2022-08-14T12:31:56;11.82;;;10.75;;
18407;SDS011;9330;52.210;21.174;2022-08-14T12:34:30;11.32;;;10.30;;
18407;SDS011;9330;52.210;21.174;2022-08-14T12:37:01;11.40;;;10.43;;
18407;SDS011;9330;52.210;21.174;2022-08-14T12:39:29;11.52;;;10.40;;
18407;SDS011;9330;52.210;21.174;2022-08-14T12:41:57;11.15;;;10.15;;
18407;SDS011;9330;52.210;21.174;2022-08-14T12:44:30;11.80;;;10.70;;
18407;SDS011;9330;52.210;21.174;2022-08-14T12:47:05;11.10;;;10.00;;
18407;SDS011;9330;52.210;21.174;2022-08-14T12:49:46;11.73;;;9.60;;
18407;SDS011;9330;52.210;21.174;2022-08-14T12:52:25;11.10;;;10.10;;
18407;SDS011;9330;52.210;21.174;2022-08-14T12:54:56;13.38;;;10.55;;
18407;SDS011;9330;52.210;21.174;2022-08-14T12:57:31;11.48;;;10.38;;
18407;SDS011;9330;52.210;21.174;2022-08-14T13:00:08;11.02;;;9.68;;
18407;SDS011;9330;52.210;21.174;2022-08-14T13:02:40;12.02;;;11.02;;
18407;SDS011;9330;52.210;21.174;2022-08-14T13:05:09;11.07;;;9.98;;
18407;SDS011;9330;52.210;21.174;2022-08-14T13:07:37;10.45;;;9.45;;
18407;SDS011;9330;52.210;21.174;2022-08-14T13:10:06;10.70;;;9.57;;
18407;SDS011;9330;52.210;21.174;2022-08-14T13:12:35;10.02;;;8.93;;
18407;SDS011;9330;52.210;21.174;2022-08-14T13:15:04;9.95;;;9.15;;
18407;SDS011;9330;52.210;21.174;2022-08-14T13:17:34;11.18;;;9.60;;
18407;SDS011;9330;52.210;21.174;2022-08-14T13:20:09;12.45;;;9.32;;
18407;SDS011;9330;52.210;21.174;2022-08-14T13:22:38;9.63;;;8.77;;
18407;SDS011;9330;52.210;21.174;2022-08-14T13:25:07;10.10;;;9.20;;
18407;SDS011;9330;52.210;21.174;2022-08-14T13:27:35;11.60;;;10.32;;
18407;SDS011;9330;52.210;21.174;2022-08-14T13:30:08;14.45;;;10.73;;
18407;SDS011;9330;52.210;21.174;2022-08-14T13:32:36;10.75;;;9.70;;
18407;SDS011;9330;52.210;21.174;2022-08-14T13:35:05;10.57;;;9.57;;
18407;SDS011;9330;52.210;21.174;2022-08-14T13:37:37;11.00;;;9.90;;
18407;SDS011;9330;52.210;21.174;2022-08-14T13:40:06;11.07;;;10.05;;
18407;SDS011;9330;52.210;21.174;2022-08-14T13:42:40;10.88;;;9.77;;
18407;SDS011;9330;52.210;21.174;2022-08-14T13:45:09;11.73;;;9.90;;
18407;SDS011;9330;52.210;21.174;2022-08-14T13:47:38;11.00;;;9.90;;
18407;SDS011;9330;52.210;21.174;2022-08-14T13:50:06;10.88;;;9.88;;
18407;SDS011;9330;52.210;21.174;2022-08-14T13:52:40;11.15;;;10.02;;
18407;SDS011;9330;52.210;21.174;2022-08-14T13:55:08;11.40;;;9.38;;
18407;SDS011;9330;52.210;21.174;2022-08-14T13:57:38;12.60;;;11.20;;
18407;SDS011;9330;52.210;21.174;2022-08-14T14:00:08;10.90;;;9.90;;
18407;SDS011;9330;52.210;21.174;2022-08-14T14:02:41;12.80;;;10.98;;
18407;SDS011;9330;52.210;21.174;2022-08-14T14:05:09;11.43;;;10.27;;
18407;SDS011;9330;52.210;21.174;2022-08-14T14:07:42;11.07;;;10.02;;
18407;SDS011;9330;52.210;21.174;2022-08-14T14:10:11;11.63;;;10.48;;
18407;SDS011;9330;52.210;21.174;2022-08-14T14:12:39;11.15;;;9.95;;
18407;SDS011;9330;52.210;21.174;2022-08-14T14:15:07;11.88;;;10.65;;
18407;SDS011;9330;52.210;21.174;2022-08-14T14:17:38;12.10;;;10.55;;
18407;SDS011;9330;52.210;21.174;2022-08-14T14:20:07;12.05;;;10.88;;
18407;SDS011;9330;52.210;21.174;2022-08-14T14:22:38;11.77;;;10.68;;
18407;SDS011;9330;52.210;21.174;2022-08-14T14:25:08;11.77;;;10.57;;
18407;SDS011;9330;52.210;21.174;2022-08-14T14:27:37;11.45;;;10.32;;
18407;SDS011;9330;52.210;21.174;2022-08-14T14:30:07;12.00;;;10.80;;
18407;SDS011;9330;52.210;21.174;2022-08-14T14:32:36;11.98;;;10.80;;
18407;SDS011;9330;52.210;21.174;2022-08-14T14:35:08;13.98;;;11.00;;
18407;SDS011;9330;52.210;21.174;2022-08-14T14:37:37;13.70;;;10.25;;
18407;SDS011;9330;52.210;21.174;2022-08-14T14:40:07;11.45;;;10.27;;
18407;SDS011;9330;52.210;21.174;2022-08-14T14:42:40;11.82;;;10.73;;
18407;SDS011;9330;52.210;21.174;2022-08-14T14:45:11;11.82;;;10.52;;
18407;SDS011;9330;52.210;21.174;2022-08-14T14:47:44;15.73;;;11.70;;
18407;SDS011;9330;52.210;21.174;2022-08-14T14:50:12;11.98;;;10.77;;
18407;SDS011;9330;52.210;21.174;2022-08-14T14:52:40;12.25;;;10.45;;
18407;SDS011;9330;52.210;21.174;2022-08-14T14:55:09;12.10;;;10.57;;